sensor_id;sensor_type;location;lat;lon;timestamp;temperature;humidity
75262;DHT22;63859;51.064;4.580;2023-07-31T00:00:15;16.80;99.90
75262;DHT22;63859;51.064;4.580;2023-07-31T00:02:41;16.80;99.90
75262;DHT22;63859;51.064;4.580;2023-07-31T00:05:08;16.80;99.90
75262;DHT22;63859;51.064;4.580;2023-07-31T00:07:34;16.80;99.90
75262;DHT22;63859;51.064;4.580;2023-07-31T00:09:59;16.80;99.90
75262;DHT22;63859;51.064;4.580;2023-07-31T00:12:25;16.80;99.90
75262;DHT22;63859;51.064;4.580;2023-07-31T00:14:51;16.80;99.90
75262;DHT22;63859;51.064;4.580;2023-07-31T00:17:17;16.80;99.90
75262;DHT22;63859;51.064;4.580;2023-07-31T00:19:43;16.80;99.90
75262;DHT22;63859;51.064;4.580;2023-07-31T00:22:08;16.80;99.90
75262;DHT22;63859;51.064;4.580;2023-07-31T00:24:34;16.80;99.90
75262;DHT22;63859;51.064;4.580;2023-07-31T00:26:59;16.80;99.90
75262;DHT22;63859;51.064;4.580;2023-07-31T00:29:25;16.80;99.90
75262;DHT22;63859;51.064;4.580;2023-07-31T00:31:51;16.80;99.90
75262;DHT22;63859;51.064;4.580;2023-07-31T00:34:16;16.80;99.90
75262;DHT22;63859;51.064;4.580;2023-07-31T00:36:42;16.80;99.90
75262;DHT22;63859;51.064;4.580;2023-07-31T00:39:07;16.80;99.90
75262;DHT22;63859;51.064;4.580;2023-07-31T00:41:33;16.80;99.90
75262;DHT22;63859;51.064;4.580;2023-07-31T00:43:59;16.80;99.90
75262;DHT22;63859;51.064;4.580;2023-07-31T00:46:24;16.80;99.90
75262;DHT22;63859;51.064;4.580;2023-07-31T00:48:50;16.80;99.90
75262;DHT22;63859;51.064;4.580;2023-07-31T00:51:16;16.80;99.90
75262;DHT22;63859;51.064;4.580;2023-07-31T00:53:42;16.80;99.90
75262;DHT22;63859;51.064;4.580;2023-07-31T00:56:08;16.80;99.90
75262;DHT22;63859;51.064;4.580;2023-07-31T00:58:34;16.80;99.90
75262;DHT22;63859;51.064;4.580;2023-07-31T01:01:00;16.80;99.90
75262;DHT22;63859;51.064;4.580;2023-07-31T01:03:25;16.80;99.90
75262;DHT22;63859;51.064;4.580;2023-07-31T01:06:15;16.80;99.90
75262;DHT22;63859;51.064;4.580;2023-07-31T01:08:57;16.80;99.90
75262;DHT22;63859;51.064;4.580;2023-07-31T01:11:33;16.80;99.90
75262;DHT22;63859;51.064;4.580;2023-07-31T01:14:00;16.80;99.90
75262;DHT22;63859;51.064;4.580;2023-07-31T01:16:27;16.80;99.90
75262;DHT22;63859;51.064;4.580;2023-07-31T01:18:52;16.80;99.90
75262;DHT22;63859;51.064;4.580;2023-07-31T01:24:28;16.80;99.90
75262;DHT22;63859;51.064;4.580;2023-07-31T01:27:11;16.80;99.90
75262;DHT22;63859;51.064;4.580;2023-07-31T01:29:46;16.80;99.90
75262;DHT22;63859;51.064;4.580;2023-07-31T01:32:13;16.80;99.90
75262;DHT22;63859;51.064;4.580;2023-07-31T01:34:41;16.80;99.90
75262;DHT22;63859;51.064;4.580;2023-07-31T01:37:07;16.90;99.90
75262;DHT22;63859;51.064;4.580;2023-07-31T01:39:32;16.90;99.90
75262;DHT22;63859;51.064;4.580;2023-07-31T01:41:58;16.90;99.90
75262;DHT22;63859;51.064;4.580;2023-07-31T01:44:23;16.90;99.90
75262;DHT22;63859;51.064;4.580;2023-07-31T01:46:49;16.90;99.90
75262;DHT22;63859;51.064;4.580;2023-07-31T01:49:15;16.90;99.90
75262;DHT22;63859;51.064;4.580;2023-07-31T01:51:40;17.00;99.90
75262;DHT22;63859;51.064;4.580;2023-07-31T01:54:06;16.90;99.90
75262;DHT22;63859;51.064;4.580;2023-07-31T01:56:32;16.90;99.90
75262;DHT22;63859;51.064;4.580;2023-07-31T01:58:57;17.00;99.90
75262;DHT22;63859;51.064;4.580;2023-07-31T02:01:23;17.00;99.90
75262;DHT22;63859;51.064;4.580;2023-07-31T02:03:48;17.00;99.90
75262;DHT22;63859;51.064;4.580;2023-07-31T02:06:14;17.00;99.90
75262;DHT22;63859;51.064;4.580;2023-07-31T02:08:40;17.00;99.90
75262;DHT22;63859;51.064;4.580;2023-07-31T02:11:05;17.00;99.90
75262;DHT22;63859;51.064;4.580;2023-07-31T02:13:31;17.00;99.90
75262;DHT22;63859;51.064;4.580;2023-07-31T02:15:57;17.00;99.90
75262;DHT22;63859;51.064;4.580;2023-07-31T02:18:23;17.00;99.90
75262;DHT22;63859;51.064;4.580;2023-07-31T02:20:52;17.00;99.90
75262;DHT22;63859;51.064;4.580;2023-07-31T02:23:20;17.00;99.90
75262;DHT22;63859;51.064;4.580;2023-07-31T02:25:46;17.00;99.90
75262;DHT22;63859;51.064;4.580;2023-07-31T02:28:12;17.10;99.90
75262;DHT22;63859;51.064;4.580;2023-07-31T02:30:38;17.10;99.90
75262;DHT22;63859;51.064;4.580;2023-07-31T02:33:05;17.10;99.90
75262;DHT22;63859;51.064;4.580;2023-07-31T02:35:30;17.10;99.90
75262;DHT22;63859;51.064;4.580;2023-07-31T02:37:56;17.10;99.90
75262;DHT22;63859;51.064;4.580;2023-07-31T02:40:22;17.10;99.90
75262;DHT22;63859;51.064;4.580;2023-07-31T02:42:47;17.10;99.90
75262;DHT22;63859;51.064;4.580;2023-07-31T02:45:13;17.10;99.90
75262;DHT22;63859;51.064;4.580;2023-07-31T02:47:39;17.10;99.90
75262;DHT22;63859;51.064;4.580;2023-07-31T02:50:05;17.10;99.90
75262;DHT22;63859;51.064;4.580;2023-07-31T02:52:30;17.10;99.90
75262;DHT22;63859;51.064;4.580;2023-07-31T02:54:57;17.10;99.90
75262;DHT22;63859;51.064;4.580;2023-07-31T02:57:23;17.10;99.90
75262;DHT22;63859;51.064;4.580;2023-07-31T02:59:49;17.10;99.90
75262;DHT22;63859;51.064;4.580;2023-07-31T03:02:14;17.10;99.90
75262;DHT22;63859;51.064;4.580;2023-07-31T03:04:40;17.10;99.90
75262;DHT22;63859;51.064;4.580;2023-07-31T03:07:06;17.10;99.90
75262;DHT22;63859;51.064;4.580;2023-07-31T03:09:31;17.10;99.90
75262;DHT22;63859;51.064;4.580;2023-07-31T03:11:57;17.10;99.90
75262;DHT22;63859;51.064;4.580;2023-07-31T03:14:23;17.10;99.90
75262;DHT22;63859;51.064;4.580;2023-07-31T03:16:49;17.10;99.90
75262;DHT22;63859;51.064;4.580;2023-07-31T03:19:14;17.10;99.90
75262;DHT22;63859;51.064;4.580;2023-07-31T03:21:40;17.10;99.90
75262;DHT22;63859;51.064;4.580;2023-07-31T03:24:06;17.10;99.90
75262;DHT22;63859;51.064;4.580;2023-07-31T03:26:32;17.10;99.90
75262;DHT22;63859;51.064;4.580;2023-07-31T03:28:58;17.20;99.90
75262;DHT22;63859;51.064;4.580;2023-07-31T03:31:23;17.20;99.90
75262;DHT22;63859;51.064;4.580;2023-07-31T03:33:49;17.20;99.90
75262;DHT22;63859;51.064;4.580;2023-07-31T03:36:15;17.20;99.90
75262;DHT22;63859;51.064;4.580;2023-07-31T03:38:40;17.20;99.90
75262;DHT22;63859;51.064;4.580;2023-07-31T03:41:06;17.20;99.90
75262;DHT22;63859;51.064;4.580;2023-07-31T03:43:32;17.20;99.90
75262;DHT22;63859;51.064;4.580;2023-07-31T03:46:00;17.20;99.90
75262;DHT22;63859;51.064;4.580;2023-07-31T03:48:26;17.20;99.90
75262;DHT22;63859;51.064;4.580;2023-07-31T03:50:52;17.20;99.90
75262;DHT22;63859;51.064;4.580;2023-07-31T03:53:18;17.20;99.90
75262;DHT22;63859;51.064;4.580;2023-07-31T03:55:44;17.20;99.90
75262;DHT22;63859;51.064;4.580;2023-07-31T03:58:09;17.10;99.90
75262;DHT22;63859;51.064;4.580;2023-07-31T04:00:35;17.10;99.90
75262;DHT22;63859;51.064;4.580;2023-07-31T04:03:01;17.10;99.90
75262;DHT22;63859;51.064;4.580;2023-07-31T04:05:26;17.10;99.90
75262;DHT22;63859;51.064;4.580;2023-07-31T04:07:52;17.10;99.90
75262;DHT22;63859;51.064;4.580;2023-07-31T04:10:18;17.00;99.90
75262;DHT22;63859;51.064;4.580;2023-07-31T04:12:43;17.00;99.90
75262;DHT22;63859;51.064;4.580;2023-07-31T04:15:09;16.90;99.90
75262;DHT22;63859;51.064;4.580;2023-07-31T04:17:35;16.90;99.90
75262;DHT22;63859;51.064;4.580;2023-07-31T04:20:01;17.00;99.90
75262;DHT22;63859;51.064;4.580;2023-07-31T04:22:27;16.90;99.90
75262;DHT22;63859;51.064;4.580;2023-07-31T04:24:53;16.90;99.90
75262;DHT22;63859;51.064;4.580;2023-07-31T04:27:18;16.90;99.90
75262;DHT22;63859;51.064;4.580;2023-07-31T04:29:44;16.80;99.90
75262;DHT22;63859;51.064;4.580;2023-07-31T04:32:11;16.80;99.90
75262;DHT22;63859;51.064;4.580;2023-07-31T04:34:37;16.80;99.90
75262;DHT22;63859;51.064;4.580;2023-07-31T04:37:03;16.80;99.90
75262;DHT22;63859;51.064;4.580;2023-07-31T04:39:28;16.80;99.90
75262;DHT22;63859;51.064;4.580;2023-07-31T04:41:54;16.80;99.90
75262;DHT22;63859;51.064;4.580;2023-07-31T04:44:20;16.80;99.90
75262;DHT22;63859;51.064;4.580;2023-07-31T04:46:45;16.80;99.90
75262;DHT22;63859;51.064;4.580;2023-07-31T04:49:11;16.80;99.90
75262;DHT22;63859;51.064;4.580;2023-07-31T04:51:37;16.80;99.90
75262;DHT22;63859;51.064;4.580;2023-07-31T04:54:03;16.80;99.90
75262;DHT22;63859;51.064;4.580;2023-07-31T04:56:29;16.80;99.90
75262;DHT22;63859;51.064;4.580;2023-07-31T04:58:54;16.80;99.90
75262;DHT22;63859;51.064;4.580;2023-07-31T05:01:20;16.70;99.90
75262;DHT22;63859;51.064;4.580;2023-07-31T05:03:46;16.70;99.90
75262;DHT22;63859;51.064;4.580;2023-07-31T05:06:12;16.70;99.90
75262;DHT22;63859;51.064;4.580;2023-07-31T05:08:38;16.70;99.90
75262;DHT22;63859;51.064;4.580;2023-07-31T05:11:04;16.80;99.90
75262;DHT22;63859;51.064;4.580;2023-07-31T05:13:30;16.70;99.90
75262;DHT22;63859;51.064;4.580;2023-07-31T05:15:56;16.80;99.90
75262;DHT22;63859;51.064;4.580;2023-07-31T05:18:21;16.70;99.90
75262;DHT22;63859;51.064;4.580;2023-07-31T05:20:47;16.80;99.90
75262;DHT22;63859;51.064;4.580;2023-07-31T05:23:13;16.70;99.90
75262;DHT22;63859;51.064;4.580;2023-07-31T05:25:38;16.80;99.90
75262;DHT22;63859;51.064;4.580;2023-07-31T05:28:04;16.80;99.90
75262;DHT22;63859;51.064;4.580;2023-07-31T05:30:30;16.80;99.90
75262;DHT22;63859;51.064;4.580;2023-07-31T05:32:56;16.70;99.90
75262;DHT22;63859;51.064;4.580;2023-07-31T05:35:22;16.70;99.90
75262;DHT22;63859;51.064;4.580;2023-07-31T05:37:47;16.70;99.90
75262;DHT22;63859;51.064;4.580;2023-07-31T05:40:14;16.70;99.90
75262;DHT22;63859;51.064;4.580;2023-07-31T05:42:39;16.70;99.90
75262;DHT22;63859;51.064;4.580;2023-07-31T05:45:06;16.70;99.90
75262;DHT22;63859;51.064;4.580;2023-07-31T05:47:32;16.70;99.90
75262;DHT22;63859;51.064;4.580;2023-07-31T05:49:58;16.60;99.90
75262;DHT22;63859;51.064;4.580;2023-07-31T05:52:24;16.60;99.90
75262;DHT22;63859;51.064;4.580;2023-07-31T05:54:49;16.70;99.90
75262;DHT22;63859;51.064;4.580;2023-07-31T05:57:16;16.60;99.90
75262;DHT22;63859;51.064;4.580;2023-07-31T05:59:41;16.60;99.90
75262;DHT22;63859;51.064;4.580;2023-07-31T06:02:07;16.60;99.90
75262;DHT22;63859;51.064;4.580;2023-07-31T06:04:33;16.70;99.90
75262;DHT22;63859;51.064;4.580;2023-07-31T06:06:58;16.70;99.90
75262;DHT22;63859;51.064;4.580;2023-07-31T06:09:24;16.70;99.90
75262;DHT22;63859;51.064;4.580;2023-07-31T06:11:51;16.70;99.90
75262;DHT22;63859;51.064;4.580;2023-07-31T06:14:17;16.70;99.90
75262;DHT22;63859;51.064;4.580;2023-07-31T06:16:43;16.70;99.90
75262;DHT22;63859;51.064;4.580;2023-07-31T06:19:09;16.70;99.90
75262;DHT22;63859;51.064;4.580;2023-07-31T06:21:35;16.70;99.90
75262;DHT22;63859;51.064;4.580;2023-07-31T06:24:03;16.70;99.90
75262;DHT22;63859;51.064;4.580;2023-07-31T06:26:29;16.70;99.90
75262;DHT22;63859;51.064;4.580;2023-07-31T06:28:54;16.70;99.90
75262;DHT22;63859;51.064;4.580;2023-07-31T06:31:20;16.70;99.90
75262;DHT22;63859;51.064;4.580;2023-07-31T06:33:49;16.70;99.90
75262;DHT22;63859;51.064;4.580;2023-07-31T06:36:15;16.70;99.90
75262;DHT22;63859;51.064;4.580;2023-07-31T06:38:40;16.80;99.90
75262;DHT22;63859;51.064;4.580;2023-07-31T06:41:06;16.80;99.90
75262;DHT22;63859;51.064;4.580;2023-07-31T06:43:32;16.90;99.90
75262;DHT22;63859;51.064;4.580;2023-07-31T06:45:57;16.90;99.90
75262;DHT22;63859;51.064;4.580;2023-07-31T06:48:23;16.90;99.90
75262;DHT22;63859;51.064;4.580;2023-07-31T06:50:49;16.90;99.90
75262;DHT22;63859;51.064;4.580;2023-07-31T06:53:14;16.90;99.90
75262;DHT22;63859;51.064;4.580;2023-07-31T06:55:40;16.90;99.90
75262;DHT22;63859;51.064;4.580;2023-07-31T06:58:06;16.90;99.90
75262;DHT22;63859;51.064;4.580;2023-07-31T07:00:32;16.90;99.90
75262;DHT22;63859;51.064;4.580;2023-07-31T07:02:58;17.00;99.90
75262;DHT22;63859;51.064;4.580;2023-07-31T07:05:23;17.00;99.90
75262;DHT22;63859;51.064;4.580;2023-07-31T07:07:50;17.10;99.90
75262;DHT22;63859;51.064;4.580;2023-07-31T07:10:17;17.00;99.90
75262;DHT22;63859;51.064;4.580;2023-07-31T07:12:43;17.10;99.90
75262;DHT22;63859;51.064;4.580;2023-07-31T07:15:09;17.10;99.90
75262;DHT22;63859;51.064;4.580;2023-07-31T07:17:34;17.10;99.90
75262;DHT22;63859;51.064;4.580;2023-07-31T07:20:00;17.20;99.90
75262;DHT22;63859;51.064;4.580;2023-07-31T07:22:26;17.20;99.90
75262;DHT22;63859;51.064;4.580;2023-07-31T07:24:52;17.20;99.90
75262;DHT22;63859;51.064;4.580;2023-07-31T07:27:18;17.30;99.90
75262;DHT22;63859;51.064;4.580;2023-07-31T07:29:45;17.30;99.90
75262;DHT22;63859;51.064;4.580;2023-07-31T07:32:11;17.30;99.90
75262;DHT22;63859;51.064;4.580;2023-07-31T07:34:37;17.40;99.90
75262;DHT22;63859;51.064;4.580;2023-07-31T07:37:03;17.40;99.90
75262;DHT22;63859;51.064;4.580;2023-07-31T07:39:28;17.40;99.90
75262;DHT22;63859;51.064;4.580;2023-07-31T07:41:54;17.40;99.90
75262;DHT22;63859;51.064;4.580;2023-07-31T07:44:20;17.30;99.90
75262;DHT22;63859;51.064;4.580;2023-07-31T07:46:45;17.40;99.90
75262;DHT22;63859;51.064;4.580;2023-07-31T07:49:11;17.40;99.90
75262;DHT22;63859;51.064;4.580;2023-07-31T07:51:37;17.40;99.90
75262;DHT22;63859;51.064;4.580;2023-07-31T07:54:03;17.40;99.90
75262;DHT22;63859;51.064;4.580;2023-07-31T07:56:28;17.40;99.90
75262;DHT22;63859;51.064;4.580;2023-07-31T07:58:54;17.40;99.90
75262;DHT22;63859;51.064;4.580;2023-07-31T08:01:20;17.40;99.90
75262;DHT22;63859;51.064;4.580;2023-07-31T08:03:46;17.40;99.90
75262;DHT22;63859;51.064;4.580;2023-07-31T08:06:12;17.40;99.90
75262;DHT22;63859;51.064;4.580;2023-07-31T08:08:38;17.50;99.90
75262;DHT22;63859;51.064;4.580;2023-07-31T08:11:04;17.50;99.90
75262;DHT22;63859;51.064;4.580;2023-07-31T08:13:30;17.60;99.90
75262;DHT22;63859;51.064;4.580;2023-07-31T08:15:55;17.70;99.90
75262;DHT22;63859;51.064;4.580;2023-07-31T08:18:21;17.70;99.90
75262;DHT22;63859;51.064;4.580;2023-07-31T08:20:47;17.80;99.90
75262;DHT22;63859;51.064;4.580;2023-07-31T08:23:13;17.90;99.90
75262;DHT22;63859;51.064;4.580;2023-07-31T08:25:39;17.90;99.90
75262;DHT22;63859;51.064;4.580;2023-07-31T08:28:06;18.00;99.90
75262;DHT22;63859;51.064;4.580;2023-07-31T08:30:32;17.90;99.90
75262;DHT22;63859;51.064;4.580;2023-07-31T08:32:59;17.90;99.90
75262;DHT22;63859;51.064;4.580;2023-07-31T08:35:26;17.90;99.90
75262;DHT22;63859;51.064;4.580;2023-07-31T08:37:53;18.00;99.90
75262;DHT22;63859;51.064;4.580;2023-07-31T08:40:19;18.00;99.90
75262;DHT22;63859;51.064;4.580;2023-07-31T08:42:49;18.00;99.90
75262;DHT22;63859;51.064;4.580;2023-07-31T08:45:17;18.00;99.90
75262;DHT22;63859;51.064;4.580;2023-07-31T08:47:51;17.90;99.90
75262;DHT22;63859;51.064;4.580;2023-07-31T08:50:19;17.90;99.90
75262;DHT22;63859;51.064;4.580;2023-07-31T08:52:47;18.00;99.90
75262;DHT22;63859;51.064;4.580;2023-07-31T08:55:13;17.90;99.90
75262;DHT22;63859;51.064;4.580;2023-07-31T08:57:39;18.00;99.90
75262;DHT22;63859;51.064;4.580;2023-07-31T09:00:06;18.00;99.90
75262;DHT22;63859;51.064;4.580;2023-07-31T09:02:48;18.00;99.90
75262;DHT22;63859;51.064;4.580;2023-07-31T09:05:17;18.00;99.90
75262;DHT22;63859;51.064;4.580;2023-07-31T09:07:45;17.90;99.90
75262;DHT22;63859;51.064;4.580;2023-07-31T09:10:12;18.00;99.90
75262;DHT22;63859;51.064;4.580;2023-07-31T09:12:39;18.00;99.90
75262;DHT22;63859;51.064;4.580;2023-07-31T09:15:05;18.00;99.90
75262;DHT22;63859;51.064;4.580;2023-07-31T09:17:32;18.00;99.90
75262;DHT22;63859;51.064;4.580;2023-07-31T09:20:12;18.00;99.90
75262;DHT22;63859;51.064;4.580;2023-07-31T09:22:38;18.10;99.90
75262;DHT22;63859;51.064;4.580;2023-07-31T09:27:53;18.10;99.90
75262;DHT22;63859;51.064;4.580;2023-07-31T09:30:19;18.20;99.90
75262;DHT22;63859;51.064;4.580;2023-07-31T09:32:47;18.30;99.90
75262;DHT22;63859;51.064;4.580;2023-07-31T09:35:31;18.40;99.90
75262;DHT22;63859;51.064;4.580;2023-07-31T09:37:59;18.50;99.90
75262;DHT22;63859;51.064;4.580;2023-07-31T09:42:53;18.60;99.90
75262;DHT22;63859;51.064;4.580;2023-07-31T09:45:19;18.60;99.90
75262;DHT22;63859;51.064;4.580;2023-07-31T09:47:48;18.60;99.90
75262;DHT22;63859;51.064;4.580;2023-07-31T09:50:17;18.60;99.90
75262;DHT22;63859;51.064;4.580;2023-07-31T09:52:43;18.60;99.90
75262;DHT22;63859;51.064;4.580;2023-07-31T09:55:09;18.60;99.90
75262;DHT22;63859;51.064;4.580;2023-07-31T09:57:40;18.60;99.90
75262;DHT22;63859;51.064;4.580;2023-07-31T10:00:09;18.60;99.90
75262;DHT22;63859;51.064;4.580;2023-07-31T10:02:36;18.60;99.90
75262;DHT22;63859;51.064;4.580;2023-07-31T10:05:04;18.60;99.90
75262;DHT22;63859;51.064;4.580;2023-07-31T10:07:33;18.60;99.90
75262;DHT22;63859;51.064;4.580;2023-07-31T10:10:00;18.60;99.90
75262;DHT22;63859;51.064;4.580;2023-07-31T10:12:27;18.60;99.90
75262;DHT22;63859;51.064;4.580;2023-07-31T10:14:56;18.70;99.90
75262;DHT22;63859;51.064;4.580;2023-07-31T10:17:25;18.60;99.90
75262;DHT22;63859;51.064;4.580;2023-07-31T10:19:52;18.60;99.90
75262;DHT22;63859;51.064;4.580;2023-07-31T10:22:19;18.60;99.90
75262;DHT22;63859;51.064;4.580;2023-07-31T10:24:46;18.60;99.90
75262;DHT22;63859;51.064;4.580;2023-07-31T10:27:12;18.60;99.90
75262;DHT22;63859;51.064;4.580;2023-07-31T10:29:39;18.60;99.90
75262;DHT22;63859;51.064;4.580;2023-07-31T10:32:06;18.70;99.90
75262;DHT22;63859;51.064;4.580;2023-07-31T10:34:35;18.70;99.90
75262;DHT22;63859;51.064;4.580;2023-07-31T10:37:35;18.70;99.90
75262;DHT22;63859;51.064;4.580;2023-07-31T10:40:12;18.90;99.90
75262;DHT22;63859;51.064;4.580;2023-07-31T10:42:47;18.80;99.90
75262;DHT22;63859;51.064;4.580;2023-07-31T10:45:14;18.80;99.90
75262;DHT22;63859;51.064;4.580;2023-07-31T10:47:48;18.80;99.90
75262;DHT22;63859;51.064;4.580;2023-07-31T10:50:17;18.80;99.90
75262;DHT22;63859;51.064;4.580;2023-07-31T10:52:51;18.80;99.90
75262;DHT22;63859;51.064;4.580;2023-07-31T10:57:57;18.90;99.90
75262;DHT22;63859;51.064;4.580;2023-07-31T11:00:28;18.80;99.90
75262;DHT22;63859;51.064;4.580;2023-07-31T11:03:05;18.90;99.90
75262;DHT22;63859;51.064;4.580;2023-07-31T11:05:51;18.90;99.90
75262;DHT22;63859;51.064;4.580;2023-07-31T11:08:21;19.00;99.90
75262;DHT22;63859;51.064;4.580;2023-07-31T11:11:04;19.00;99.90
75262;DHT22;63859;51.064;4.580;2023-07-31T11:13:32;19.10;99.90
75262;DHT22;63859;51.064;4.580;2023-07-31T11:15:58;19.20;99.90
75262;DHT22;63859;51.064;4.580;2023-07-31T11:18:26;19.30;99.90
75262;DHT22;63859;51.064;4.580;2023-07-31T11:20:52;19.20;99.90
75262;DHT22;63859;51.064;4.580;2023-07-31T11:23:19;19.20;99.90
75262;DHT22;63859;51.064;4.580;2023-07-31T11:25:45;19.20;99.90
75262;DHT22;63859;51.064;4.580;2023-07-31T11:28:13;19.30;99.90
75262;DHT22;63859;51.064;4.580;2023-07-31T11:30:40;19.40;99.90
75262;DHT22;63859;51.064;4.580;2023-07-31T11:33:07;19.50;99.90
75262;DHT22;63859;51.064;4.580;2023-07-31T11:35:35;19.40;99.90
75262;DHT22;63859;51.064;4.580;2023-07-31T11:38:02;19.40;99.90
75262;DHT22;63859;51.064;4.580;2023-07-31T11:40:28;19.40;99.90
75262;DHT22;63859;51.064;4.580;2023-07-31T11:42:58;19.40;99.90
75262;DHT22;63859;51.064;4.580;2023-07-31T11:45:27;19.40;99.90
75262;DHT22;63859;51.064;4.580;2023-07-31T11:47:55;19.50;99.90
75262;DHT22;63859;51.064;4.580;2023-07-31T11:50:21;19.50;99.90
75262;DHT22;63859;51.064;4.580;2023-07-31T11:52:49;19.60;99.90
75262;DHT22;63859;51.064;4.580;2023-07-31T11:55:17;19.60;99.90
75262;DHT22;63859;51.064;4.580;2023-07-31T11:57:43;19.60;99.90
75262;DHT22;63859;51.064;4.580;2023-07-31T12:00:11;19.60;99.90
75262;DHT22;63859;51.064;4.580;2023-07-31T12:02:39;19.60;99.90
75262;DHT22;63859;51.064;4.580;2023-07-31T12:05:06;19.60;99.90
75262;DHT22;63859;51.064;4.580;2023-07-31T12:07:48;19.70;99.90
75262;DHT22;63859;51.064;4.580;2023-07-31T12:10:25;19.70;99.90
75262;DHT22;63859;51.064;4.580;2023-07-31T12:13:03;19.80;99.90
75262;DHT22;63859;51.064;4.580;2023-07-31T12:17:59;19.80;99.90
75262;DHT22;63859;51.064;4.580;2023-07-31T12:20:24;19.90;99.90
75262;DHT22;63859;51.064;4.580;2023-07-31T12:22:50;20.10;99.90
75262;DHT22;63859;51.064;4.580;2023-07-31T12:25:16;20.10;99.90
75262;DHT22;63859;51.064;4.580;2023-07-31T12:27:45;20.20;99.90
75262;DHT22;63859;51.064;4.580;2023-07-31T12:30:33;20.20;99.90
75262;DHT22;63859;51.064;4.580;2023-07-31T12:33:12;20.10;99.90
75262;DHT22;63859;51.064;4.580;2023-07-31T12:35:40;20.10;99.90
75262;DHT22;63859;51.064;4.580;2023-07-31T12:38:06;20.10;99.90
75262;DHT22;63859;51.064;4.580;2023-07-31T12:40:32;20.10;99.90
75262;DHT22;63859;51.064;4.580;2023-07-31T12:43:01;20.20;99.90
75262;DHT22;63859;51.064;4.580;2023-07-31T12:45:28;20.10;99.90
75262;DHT22;63859;51.064;4.580;2023-07-31T12:47:53;20.10;99.90
75262;DHT22;63859;51.064;4.580;2023-07-31T12:50:19;20.10;99.90
75262;DHT22;63859;51.064;4.580;2023-07-31T12:52:45;20.10;99.90
75262;DHT22;63859;51.064;4.580;2023-07-31T12:55:10;20.10;99.90
75262;DHT22;63859;51.064;4.580;2023-07-31T12:57:36;20.10;99.90
75262;DHT22;63859;51.064;4.580;2023-07-31T13:00:03;20.10;99.90
75262;DHT22;63859;51.064;4.580;2023-07-31T13:02:29;20.10;99.90
75262;DHT22;63859;51.064;4.580;2023-07-31T13:04:54;20.10;99.90
75262;DHT22;63859;51.064;4.580;2023-07-31T13:07:22;20.10;99.90
75262;DHT22;63859;51.064;4.580;2023-07-31T13:09:48;20.10;99.90
75262;DHT22;63859;51.064;4.580;2023-07-31T13:12:14;20.10;99.90
75262;DHT22;63859;51.064;4.580;2023-07-31T13:14:39;20.10;99.90
75262;DHT22;63859;51.064;4.580;2023-07-31T13:17:05;20.10;99.90
75262;DHT22;63859;51.064;4.580;2023-07-31T13:19:31;20.00;99.90
75262;DHT22;63859;51.064;4.580;2023-07-31T13:21:57;20.00;99.90
75262;DHT22;63859;51.064;4.580;2023-07-31T13:24:22;20.00;99.90
75262;DHT22;63859;51.064;4.580;2023-07-31T13:26:48;20.00;99.90
75262;DHT22;63859;51.064;4.580;2023-07-31T13:29:14;20.00;99.90
75262;DHT22;63859;51.064;4.580;2023-07-31T13:31:39;19.90;99.90
75262;DHT22;63859;51.064;4.580;2023-07-31T13:34:05;19.90;99.90
75262;DHT22;63859;51.064;4.580;2023-07-31T13:36:31;19.90;99.90
75262;DHT22;63859;51.064;4.580;2023-07-31T13:38:56;19.80;99.90
75262;DHT22;63859;51.064;4.580;2023-07-31T13:41:22;19.70;99.90
75262;DHT22;63859;51.064;4.580;2023-07-31T13:43:48;19.50;99.90
75262;DHT22;63859;51.064;4.580;2023-07-31T13:46:13;19.50;99.90
75262;DHT22;63859;51.064;4.580;2023-07-31T13:48:39;19.40;99.90
75262;DHT22;63859;51.064;4.580;2023-07-31T13:51:04;19.30;99.90
75262;DHT22;63859;51.064;4.580;2023-07-31T13:53:31;19.20;99.90
75262;DHT22;63859;51.064;4.580;2023-07-31T13:55:56;19.10;99.90
75262;DHT22;63859;51.064;4.580;2023-07-31T13:58:22;19.10;99.90
75262;DHT22;63859;51.064;4.580;2023-07-31T14:00:48;19.00;99.90
75262;DHT22;63859;51.064;4.580;2023-07-31T14:03:14;19.00;99.90
75262;DHT22;63859;51.064;4.580;2023-07-31T14:05:40;19.00;99.90
75262;DHT22;63859;51.064;4.580;2023-07-31T14:08:05;18.90;99.90
75262;DHT22;63859;51.064;4.580;2023-07-31T14:10:31;18.90;99.90
75262;DHT22;63859;51.064;4.580;2023-07-31T14:12:57;18.90;99.90
75262;DHT22;63859;51.064;4.580;2023-07-31T14:15:22;18.90;99.90
75262;DHT22;63859;51.064;4.580;2023-07-31T14:17:48;18.80;99.90
75262;DHT22;63859;51.064;4.580;2023-07-31T14:20:14;18.80;99.90
75262;DHT22;63859;51.064;4.580;2023-07-31T14:22:39;18.70;99.90
75262;DHT22;63859;51.064;4.580;2023-07-31T14:25:05;18.70;99.90
75262;DHT22;63859;51.064;4.580;2023-07-31T14:27:31;18.70;99.90
75262;DHT22;63859;51.064;4.580;2023-07-31T14:29:57;18.50;99.90
75262;DHT22;63859;51.064;4.580;2023-07-31T14:32:22;18.50;99.90
75262;DHT22;63859;51.064;4.580;2023-07-31T14:34:51;18.40;99.90
75262;DHT22;63859;51.064;4.580;2023-07-31T14:37:16;18.40;99.90
75262;DHT22;63859;51.064;4.580;2023-07-31T14:39:42;18.30;99.90
75262;DHT22;63859;51.064;4.580;2023-07-31T14:42:09;18.30;99.90
75262;DHT22;63859;51.064;4.580;2023-07-31T14:44:34;18.30;99.90
75262;DHT22;63859;51.064;4.580;2023-07-31T14:47:00;18.30;99.90
75262;DHT22;63859;51.064;4.580;2023-07-31T14:49:26;18.30;99.90
75262;DHT22;63859;51.064;4.580;2023-07-31T14:51:53;18.20;99.90
75262;DHT22;63859;51.064;4.580;2023-07-31T14:54:19;18.20;99.90
75262;DHT22;63859;51.064;4.580;2023-07-31T14:56:45;18.20;99.90
75262;DHT22;63859;51.064;4.580;2023-07-31T14:59:11;18.20;99.90
75262;DHT22;63859;51.064;4.580;2023-07-31T15:01:37;18.20;99.90
75262;DHT22;63859;51.064;4.580;2023-07-31T15:04:03;18.20;99.90
75262;DHT22;63859;51.064;4.580;2023-07-31T15:06:29;18.20;99.90
75262;DHT22;63859;51.064;4.580;2023-07-31T15:08:54;18.20;99.90
75262;DHT22;63859;51.064;4.580;2023-07-31T15:11:20;18.20;99.90
75262;DHT22;63859;51.064;4.580;2023-07-31T15:13:46;18.30;99.90
75262;DHT22;63859;51.064;4.580;2023-07-31T15:16:11;18.20;99.90
75262;DHT22;63859;51.064;4.580;2023-07-31T15:18:37;18.20;99.90
75262;DHT22;63859;51.064;4.580;2023-07-31T15:21:03;18.20;99.90
75262;DHT22;63859;51.064;4.580;2023-07-31T15:23:29;18.20;99.90
75262;DHT22;63859;51.064;4.580;2023-07-31T15:25:55;18.10;99.90
75262;DHT22;63859;51.064;4.580;2023-07-31T15:28:21;18.10;99.90
75262;DHT22;63859;51.064;4.580;2023-07-31T15:30:47;18.10;99.90
75262;DHT22;63859;51.064;4.580;2023-07-31T15:33:13;18.10;99.90
75262;DHT22;63859;51.064;4.580;2023-07-31T15:35:38;18.10;99.90
75262;DHT22;63859;51.064;4.580;2023-07-31T15:38:04;18.10;99.90
75262;DHT22;63859;51.064;4.580;2023-07-31T15:40:30;18.10;99.90